sensor_id;sensor_type;location;lat;lon;timestamp;pressure;altitude;pressure_sealevel;temperature;humidity
55010;BME280;40903;51.638;7.528;2022-10-16T00:02:11;100555.53;;;13.20;100.00
55010;BME280;40903;51.638;7.528;2022-10-16T00:04:36;100547.47;;;13.15;100.00
55010;BME280;40903;51.638;7.528;2022-10-16T00:07:02;100544.84;;;13.10;100.00
55010;BME280;40903;51.638;7.528;2022-10-16T00:09:27;100547.69;;;13.05;100.00
55010;BME280;40903;51.638;7.528;2022-10-16T00:11:52;100552.47;;;13.00;100.00
55010;BME280;40903;51.638;7.528;2022-10-16T00:14:17;100541.66;;;12.95;100.00
55010;BME280;40903;51.638;7.528;2022-10-16T00:16:42;100534.34;;;12.90;100.00
55010;BME280;40903;51.638;7.528;2022-10-16T00:19:08;100536.69;;;12.83;100.00
55010;BME280;40903;51.638;7.528;2022-10-16T00:21:34;100552.13;;;12.79;100.00
55010;BME280;40903;51.638;7.528;2022-10-16T00:24:00;100559.03;;;12.77;100.00
55010;BME280;40903;51.638;7.528;2022-10-16T00:26:26;100565.41;;;12.72;100.00
55010;BME280;40903;51.638;7.528;2022-10-16T00:28:52;100560.03;;;12.67;100.00
55010;BME280;40903;51.638;7.528;2022-10-16T00:31:18;100550.34;;;12.61;100.00
55010;BME280;40903;51.638;7.528;2022-10-16T00:33:43;100551.59;;;12.55;100.00
55010;BME280;40903;51.638;7.528;2022-10-16T00:36:13;100551.59;;;12.55;100.00
55010;BME280;40903;51.638;7.528;2022-10-16T00:38:38;100543.97;;;12.52;100.00
55010;BME280;40903;51.638;7.528;2022-10-16T00:41:04;100549.56;;;12.47;100.00
55010;BME280;40903;51.638;7.528;2022-10-16T00:46:02;100559.28;;;12.40;100.00
55010;BME280;40903;51.638;7.528;2022-10-16T00:48:27;100556.34;;;12.36;100.00
55010;BME280;40903;51.638;7.528;2022-10-16T00:50:53;100554.22;;;12.33;100.00
55010;BME280;40903;51.638;7.528;2022-10-16T00:53:18;100563.34;;;12.29;100.00
55010;BME280;40903;51.638;7.528;2022-10-16T00:55:44;100556.88;;;12.25;100.00
55010;BME280;40903;51.638;7.528;2022-10-16T00:58:09;100552.81;;;12.22;100.00
55010;BME280;40903;51.638;7.528;2022-10-16T01:00:34;100553.44;;;12.19;100.00
55010;BME280;40903;51.638;7.528;2022-10-16T01:03:01;100560.34;;;12.17;100.00
55010;BME280;40903;51.638;7.528;2022-10-16T01:05:34;100555.16;;;12.15;100.00
55010;BME280;40903;51.638;7.528;2022-10-16T01:08:08;100554.66;;;12.13;100.00
55010;BME280;40903;51.638;7.528;2022-10-16T01:10:38;100554.16;;;12.11;100.00
55010;BME280;40903;51.638;7.528;2022-10-16T01:13:06;100559.13;;;12.09;100.00
55010;BME280;40903;51.638;7.528;2022-10-16T01:15:33;100554.25;;;12.06;100.00
55010;BME280;40903;51.638;7.528;2022-10-16T01:20:26;100558.09;;;12.05;100.00
55010;BME280;40903;51.638;7.528;2022-10-16T01:23:06;100569.34;;;12.04;100.00
55010;BME280;40903;51.638;7.528;2022-10-16T01:25:56;100562.56;;;12.01;100.00
55010;BME280;40903;51.638;7.528;2022-10-16T01:28:25;100571.03;;;12.00;100.00
55010;BME280;40903;51.638;7.528;2022-10-16T01:30:53;100576.31;;;11.96;100.00
55010;BME280;40903;51.638;7.528;2022-10-16T01:33:30;100570.66;;;11.93;100.00
55010;BME280;40903;51.638;7.528;2022-10-16T01:36:02;100565.78;;;11.90;100.00
55010;BME280;40903;51.638;7.528;2022-10-16T01:38:35;100569.63;;;11.89;100.00
55010;BME280;40903;51.638;7.528;2022-10-16T01:41:04;100574.88;;;11.85;100.00
55010;BME280;40903;51.638;7.528;2022-10-16T01:43:33;100567.81;;;11.84;100.00
55010;BME280;40903;51.638;7.528;2022-10-16T01:46:00;100563.13;;;11.85;100.00
55010;BME280;40903;51.638;7.528;2022-10-16T01:48:26;100557.66;;;11.85;100.00
55010;BME280;40903;51.638;7.528;2022-10-16T01:50:54;100563.66;;;11.87;100.00
55010;BME280;40903;51.638;7.528;2022-10-16T01:53:20;100557.09;;;11.88;100.00
55010;BME280;40903;51.638;7.528;2022-10-16T01:55:46;100553.03;;;11.85;100.00
55010;BME280;40903;51.638;7.528;2022-10-16T01:58:13;100556.78;;;11.89;100.00
55010;BME280;40903;51.638;7.528;2022-10-16T02:00:39;100550.19;;;11.90;100.00
55010;BME280;40903;51.638;7.528;2022-10-16T02:03:06;100553.81;;;11.86;100.00
55010;BME280;40903;51.638;7.528;2022-10-16T02:05:34;100550.09;;;11.82;100.00
55010;BME280;40903;51.638;7.528;2022-10-16T02:08:02;100551.19;;;11.81;100.00
55010;BME280;40903;51.638;7.528;2022-10-16T02:10:27;100553.94;;;11.81;100.00
55010;BME280;40903;51.638;7.528;2022-10-16T02:13:03;100554.25;;;11.79;100.00
55010;BME280;40903;51.638;7.528;2022-10-16T02:15:31;100555.66;;;11.77;100.00
55010;BME280;40903;51.638;7.528;2022-10-16T02:17:56;100561.72;;;11.74;100.00
55010;BME280;40903;51.638;7.528;2022-10-16T02:20:22;100562.31;;;11.71;100.00
55010;BME280;40903;51.638;7.528;2022-10-16T02:22:50;100559.38;;;11.68;100.00
55010;BME280;40903;51.638;7.528;2022-10-16T02:25:17;100564.34;;;11.66;100.00
55010;BME280;40903;51.638;7.528;2022-10-16T02:27:47;100561.91;;;11.64;100.00
55010;BME280;40903;51.638;7.528;2022-10-16T02:32:47;100576.44;;;11.60;100.00
55010;BME280;40903;51.638;7.528;2022-10-16T02:35:14;100583.53;;;11.61;100.00
55010;BME280;40903;51.638;7.528;2022-10-16T02:37:40;100585.16;;;11.62;100.00
55010;BME280;40903;51.638;7.528;2022-10-16T02:40:05;100582.94;;;11.64;100.00
55010;BME280;40903;51.638;7.528;2022-10-16T02:42:36;100581.25;;;11.68;100.00
55010;BME280;40903;51.638;7.528;2022-10-16T02:45:01;100571.31;;;11.72;100.00
55010;BME280;40903;51.638;7.528;2022-10-16T02:47:27;100575.69;;;11.73;100.00
55010;BME280;40903;51.638;7.528;2022-10-16T02:49:52;100574.28;;;11.75;100.00
55010;BME280;40903;51.638;7.528;2022-10-16T02:52:17;100578.31;;;11.77;100.00
55010;BME280;40903;51.638;7.528;2022-10-16T02:54:42;100574.66;;;11.82;100.00
55010;BME280;40903;51.638;7.528;2022-10-16T02:57:07;100581.97;;;11.86;100.00
55010;BME280;40903;51.638;7.528;2022-10-16T02:59:33;100578.13;;;11.87;100.00
55010;BME280;40903;51.638;7.528;2022-10-16T03:01:58;100574.50;;;11.92;100.00
55010;BME280;40903;51.638;7.528;2022-10-16T03:04:23;100567.31;;;11.96;100.00
55010;BME280;40903;51.638;7.528;2022-10-16T03:06:48;100572.97;;;11.99;100.00
55010;BME280;40903;51.638;7.528;2022-10-16T03:09:13;100572.06;;;12.04;100.00
55010;BME280;40903;51.638;7.528;2022-10-16T03:11:39;100567.31;;;12.09;100.00
55010;BME280;40903;51.638;7.528;2022-10-16T03:14:04;100569.44;;;12.12;100.00
55010;BME280;40903;51.638;7.528;2022-10-16T03:16:29;100565.59;;;12.13;100.00
55010;BME280;40903;51.638;7.528;2022-10-16T03:18:54;100570.75;;;12.15;100.00
55010;BME280;40903;51.638;7.528;2022-10-16T03:21:19;100576.75;;;12.17;100.00
55010;BME280;40903;51.638;7.528;2022-10-16T03:23:44;100586.25;;;12.19;100.00
55010;BME280;40903;51.638;7.528;2022-10-16T03:26:10;100585.03;;;12.25;100.00
55010;BME280;40903;51.638;7.528;2022-10-16T03:28:35;100585.94;;;12.34;100.00
55010;BME280;40903;51.638;7.528;2022-10-16T03:31:00;100585.19;;;12.56;100.00
55010;BME280;40903;51.638;7.528;2022-10-16T03:33:25;100586.91;;;12.65;100.00
55010;BME280;40903;51.638;7.528;2022-10-16T03:35:51;100584.56;;;12.72;100.00
55010;BME280;40903;51.638;7.528;2022-10-16T03:38:17;100573.50;;;12.77;100.00
55010;BME280;40903;51.638;7.528;2022-10-16T03:40:42;100574.41;;;12.86;100.00
55010;BME280;40903;51.638;7.528;2022-10-16T03:43:07;100568.09;;;12.86;100.00
55010;BME280;40903;51.638;7.528;2022-10-16T03:45:32;100571.13;;;12.84;100.00
55010;BME280;40903;51.638;7.528;2022-10-16T03:47:58;100568.72;;;12.83;100.00
55010;BME280;40903;51.638;7.528;2022-10-16T03:50:23;100572.78;;;12.85;100.00
55010;BME280;40903;51.638;7.528;2022-10-16T03:52:48;100570.53;;;12.87;100.00
55010;BME280;40903;51.638;7.528;2022-10-16T03:55:13;100572.91;;;12.94;100.00
55010;BME280;40903;51.638;7.528;2022-10-16T03:57:38;100569.31;;;12.93;100.00
55010;BME280;40903;51.638;7.528;2022-10-16T04:00:04;100576.41;;;12.94;100.00
55010;BME280;40903;51.638;7.528;2022-10-16T04:02:29;100580.78;;;12.95;100.00
55010;BME280;40903;51.638;7.528;2022-10-16T04:04:54;100580.97;;;12.99;100.00
55010;BME280;40903;51.638;7.528;2022-10-16T04:07:19;100586.75;;;12.97;100.00
55010;BME280;40903;51.638;7.528;2022-10-16T04:09:45;100589.88;;;12.91;100.00
55010;BME280;40903;51.638;7.528;2022-10-16T04:12:10;100600.53;;;12.92;100.00
55010;BME280;40903;51.638;7.528;2022-10-16T04:14:35;100590.19;;;12.89;100.00
55010;BME280;40903;51.638;7.528;2022-10-16T04:17:00;100590.81;;;12.86;100.00
55010;BME280;40903;51.638;7.528;2022-10-16T04:19:26;100597.50;;;12.80;100.00
55010;BME280;40903;51.638;7.528;2022-10-16T04:21:51;100604.22;;;12.74;100.00
55010;BME280;40903;51.638;7.528;2022-10-16T04:24:16;100607.88;;;12.70;100.00
55010;BME280;40903;51.638;7.528;2022-10-16T04:26:41;100598.88;;;12.69;100.00
55010;BME280;40903;51.638;7.528;2022-10-16T04:29:06;100608.50;;;12.67;100.00
55010;BME280;40903;51.638;7.528;2022-10-16T04:31:32;100618.03;;;12.69;100.00
55010;BME280;40903;51.638;7.528;2022-10-16T04:33:57;100616.09;;;12.70;100.00
55010;BME280;40903;51.638;7.528;2022-10-16T04:36:23;100618.31;;;12.68;100.00
55010;BME280;40903;51.638;7.528;2022-10-16T04:38:48;100615.38;;;12.64;100.00
55010;BME280;40903;51.638;7.528;2022-10-16T04:41:13;100620.13;;;12.59;100.00
55010;BME280;40903;51.638;7.528;2022-10-16T04:43:38;100620.56;;;12.52;100.00
55010;BME280;40903;51.638;7.528;2022-10-16T04:46:03;100626.13;;;12.47;100.00
55010;BME280;40903;51.638;7.528;2022-10-16T04:48:29;100632.50;;;12.43;100.00
55010;BME280;40903;51.638;7.528;2022-10-16T04:50:55;100632.84;;;12.41;100.00
55010;BME280;40903;51.638;7.528;2022-10-16T04:53:20;100632.00;;;12.41;100.00
55010;BME280;40903;51.638;7.528;2022-10-16T04:55:45;100638.19;;;12.46;100.00
55010;BME280;40903;51.638;7.528;2022-10-16T04:58:10;100644.78;;;12.45;100.00
55010;BME280;40903;51.638;7.528;2022-10-16T05:00:36;100653.69;;;12.51;100.00
55010;BME280;40903;51.638;7.528;2022-10-16T05:03:01;100651.66;;;12.70;100.00
55010;BME280;40903;51.638;7.528;2022-10-16T05:05:26;100650.31;;;12.67;100.00
55010;BME280;40903;51.638;7.528;2022-10-16T05:07:52;100643.06;;;12.63;100.00
55010;BME280;40903;51.638;7.528;2022-10-16T05:10:17;100650.22;;;12.59;100.00
55010;BME280;40903;51.638;7.528;2022-10-16T05:12:42;100648.00;;;12.61;100.00
55010;BME280;40903;51.638;7.528;2022-10-16T05:15:08;100640.72;;;12.56;100.00
55010;BME280;40903;51.638;7.528;2022-10-16T05:17:33;100640.81;;;12.51;100.00
55010;BME280;40903;51.638;7.528;2022-10-16T05:19:58;100655.31;;;12.52;100.00
55010;BME280;40903;51.638;7.528;2022-10-16T05:22:23;100654.69;;;12.55;100.00
55010;BME280;40903;51.638;7.528;2022-10-16T05:24:48;100662.41;;;12.53;100.00
55010;BME280;40903;51.638;7.528;2022-10-16T05:27:14;100675.78;;;12.54;100.00
55010;BME280;40903;51.638;7.528;2022-10-16T05:29:44;100663.81;;;12.64;100.00
55010;BME280;40903;51.638;7.528;2022-10-16T05:32:10;100677.69;;;12.67;100.00
55010;BME280;40903;51.638;7.528;2022-10-16T05:34:35;100674.94;;;12.67;100.00
55010;BME280;40903;51.638;7.528;2022-10-16T05:37:00;100678.59;;;12.76;100.00
55010;BME280;40903;51.638;7.528;2022-10-16T05:39:26;100677.06;;;12.84;100.00
55010;BME280;40903;51.638;7.528;2022-10-16T05:41:51;100679.50;;;12.85;100.00
55010;BME280;40903;51.638;7.528;2022-10-16T05:44:17;100679.06;;;12.92;100.00
55010;BME280;40903;51.638;7.528;2022-10-16T05:46:42;100684.53;;;12.92;100.00
55010;BME280;40903;51.638;7.528;2022-10-16T05:49:07;100680.00;;;12.87;100.00
55010;BME280;40903;51.638;7.528;2022-10-16T05:51:32;100685.56;;;12.82;100.00
55010;BME280;40903;51.638;7.528;2022-10-16T05:53:57;100691.66;;;12.79;100.00
55010;BME280;40903;51.638;7.528;2022-10-16T05:56:23;100695.22;;;12.80;100.00
55010;BME280;40903;51.638;7.528;2022-10-16T05:58:48;100699.25;;;12.82;100.00
55010;BME280;40903;51.638;7.528;2022-10-16T06:01:17;100697.63;;;12.81;100.00
55010;BME280;40903;51.638;7.528;2022-10-16T06:03:42;100697.13;;;12.79;100.00
55010;BME280;40903;51.638;7.528;2022-10-16T06:06:09;100702.59;;;12.79;100.00
55010;BME280;40903;51.638;7.528;2022-10-16T06:08:35;100710.53;;;12.81;100.00
55010;BME280;40903;51.638;7.528;2022-10-16T06:11:01;100705.75;;;12.86;100.00
55010;BME280;40903;51.638;7.528;2022-10-16T06:13:27;100714.56;;;12.83;100.00
55010;BME280;40903;51.638;7.528;2022-10-16T06:15:52;100718.13;;;12.84;100.00
55010;BME280;40903;51.638;7.528;2022-10-16T06:18:17;100717.00;;;12.85;100.00
55010;BME280;40903;51.638;7.528;2022-10-16T06:20:42;100732.31;;;12.86;100.00
55010;BME280;40903;51.638;7.528;2022-10-16T06:23:07;100726.44;;;12.92;100.00
55010;BME280;40903;51.638;7.528;2022-10-16T06:25:32;100726.84;;;12.99;100.00
55010;BME280;40903;51.638;7.528;2022-10-16T06:27:58;100738.72;;;13.08;100.00
55010;BME280;40903;51.638;7.528;2022-10-16T06:30:23;100754.44;;;13.16;100.00
55010;BME280;40903;51.638;7.528;2022-10-16T06:32:48;100755.44;;;13.20;100.00
55010;BME280;40903;51.638;7.528;2022-10-16T06:35:13;100752.56;;;13.25;100.00
55010;BME280;40903;51.638;7.528;2022-10-16T06:37:38;100749.75;;;13.30;100.00
55010;BME280;40903;51.638;7.528;2022-10-16T06:40:04;100753.56;;;13.29;100.00
55010;BME280;40903;51.638;7.528;2022-10-16T06:42:29;100764.53;;;13.29;100.00
55010;BME280;40903;51.638;7.528;2022-10-16T06:44:55;100759.25;;;13.33;100.00
55010;BME280;40903;51.638;7.528;2022-10-16T06:47:20;100763.13;;;13.32;100.00
55010;BME280;40903;51.638;7.528;2022-10-16T06:49:45;100769.00;;;13.39;100.00
55010;BME280;40903;51.638;7.528;2022-10-16T06:52:10;100771.41;;;13.40;100.00
55010;BME280;40903;51.638;7.528;2022-10-16T06:54:35;100776.69;;;13.50;100.00
55010;BME280;40903;51.638;7.528;2022-10-16T06:57:00;100782.53;;;13.57;100.00
55010;BME280;40903;51.638;7.528;2022-10-16T06:59:26;100777.69;;;13.54;100.00
55010;BME280;40903;51.638;7.528;2022-10-16T07:01:52;100787.72;;;13.59;100.00
55010;BME280;40903;51.638;7.528;2022-10-16T07:04:17;100775.84;;;13.63;100.00
55010;BME280;40903;51.638;7.528;2022-10-16T07:06:42;100787.16;;;13.70;100.00
55010;BME280;40903;51.638;7.528;2022-10-16T07:09:08;100801.38;;;13.72;100.00
55010;BME280;40903;51.638;7.528;2022-10-16T07:11:34;100802.50;;;13.71;100.00
55010;BME280;40903;51.638;7.528;2022-10-16T07:14:00;100813.44;;;13.71;100.00
55010;BME280;40903;51.638;7.528;2022-10-16T07:16:26;100818.94;;;13.71;100.00
55010;BME280;40903;51.638;7.528;2022-10-16T07:18:53;100817.22;;;13.75;100.00
55010;BME280;40903;51.638;7.528;2022-10-16T07:21:22;100824.13;;;13.73;100.00
55010;BME280;40903;51.638;7.528;2022-10-16T07:23:50;100824.78;;;13.91;100.00
55010;BME280;40903;51.638;7.528;2022-10-16T07:26:15;100834.81;;;13.96;100.00
55010;BME280;40903;51.638;7.528;2022-10-16T07:28:41;100833.41;;;13.98;100.00
55010;BME280;40903;51.638;7.528;2022-10-16T07:31:09;100837.56;;;13.96;100.00
55010;BME280;40903;51.638;7.528;2022-10-16T07:33:36;100847.03;;;13.90;100.00
55010;BME280;40903;51.638;7.528;2022-10-16T07:36:01;100846.19;;;13.89;100.00
55010;BME280;40903;51.638;7.528;2022-10-16T07:38:26;100847.44;;;13.83;100.00
55010;BME280;40903;51.638;7.528;2022-10-16T07:40:59;100848.53;;;13.96;100.00
55010;BME280;40903;51.638;7.528;2022-10-16T07:43:25;100858.00;;;13.90;100.00
55010;BME280;40903;51.638;7.528;2022-10-16T07:45:51;100854.63;;;13.93;100.00
55010;BME280;40903;51.638;7.528;2022-10-16T07:48:16;100860.97;;;14.02;100.00
55010;BME280;40903;51.638;7.528;2022-10-16T07:50:42;100862.19;;;14.09;100.00
55010;BME280;40903;51.638;7.528;2022-10-16T07:53:07;100857.91;;;14.17;100.00
55010;BME280;40903;51.638;7.528;2022-10-16T07:55:33;100871.09;;;14.28;100.00
55010;BME280;40903;51.638;7.528;2022-10-16T07:57:58;100869.47;;;14.27;100.00
55010;BME280;40903;51.638;7.528;2022-10-16T08:00:23;100874.16;;;14.27;100.00
55010;BME280;40903;51.638;7.528;2022-10-16T08:02:48;100880.63;;;14.31;100.00
55010;BME280;40903;51.638;7.528;2022-10-16T08:05:13;100883.31;;;14.44;100.00
55010;BME280;40903;51.638;7.528;2022-10-16T08:07:39;100885.38;;;14.61;100.00
55010;BME280;40903;51.638;7.528;2022-10-16T08:10:04;100901.16;;;14.77;100.00
55010;BME280;40903;51.638;7.528;2022-10-16T08:12:29;100898.22;;;14.96;100.00
55010;BME280;40903;51.638;7.528;2022-10-16T08:14:55;100898.59;;;15.11;100.00
55010;BME280;40903;51.638;7.528;2022-10-16T08:17:20;100901.41;;;15.28;100.00
55010;BME280;40903;51.638;7.528;2022-10-16T08:19:45;100908.16;;;15.44;100.00
55010;BME280;40903;51.638;7.528;2022-10-16T08:22:11;100915.66;;;15.61;100.00
55010;BME280;40903;51.638;7.528;2022-10-16T08:24:36;100914.88;;;15.77;100.00
55010;BME280;40903;51.638;7.528;2022-10-16T08:27:02;100918.31;;;15.91;100.00
55010;BME280;40903;51.638;7.528;2022-10-16T08:29:27;100916.41;;;16.08;98.50
55010;BME280;40903;51.638;7.528;2022-10-16T08:31:52;100922.25;;;16.24;97.34
55010;BME280;40903;51.638;7.528;2022-10-16T08:34:18;100929.38;;;16.33;97.42
55010;BME280;40903;51.638;7.528;2022-10-16T08:36:43;100931.84;;;16.52;95.78
55010;BME280;40903;51.638;7.528;2022-10-16T08:39:08;100933.97;;;16.63;95.58
55010;BME280;40903;51.638;7.528;2022-10-16T08:44:21;100938.13;;;16.86;96.65
55010;BME280;40903;51.638;7.528;2022-10-16T08:49:18;100949.91;;;17.12;90.53
55010;BME280;40903;51.638;7.528;2022-10-16T08:51:43;100947.78;;;17.26;92.45
55010;BME280;40903;51.638;7.528;2022-10-16T08:56:54;100951.00;;;17.74;84.17
55010;BME280;40903;51.638;7.528;2022-10-16T08:59:19;100949.81;;;18.12;80.72
55010;BME280;40903;51.638;7.528;2022-10-16T09:01:45;100951.34;;;18.51;80.71
55010;BME280;40903;51.638;7.528;2022-10-16T09:04:22;100963.56;;;18.70;80.68
55010;BME280;40903;51.638;7.528;2022-10-16T09:06:58;100970.41;;;18.85;75.36
55010;BME280;40903;51.638;7.528;2022-10-16T09:17:04;100980.31;;;19.51;71.00
55010;BME280;40903;51.638;7.528;2022-10-16T09:19:36;100980.16;;;19.35;69.52
55010;BME280;40903;51.638;7.528;2022-10-16T09:22:10;100982.78;;;19.20;70.53
55010;BME280;40903;51.638;7.528;2022-10-16T09:24:37;100987.56;;;19.11;69.27
55010;BME280;40903;51.638;7.528;2022-10-16T09:27:03;100981.78;;;19.04;68.36
55010;BME280;40903;51.638;7.528;2022-10-16T09:29:28;100981.50;;;18.97;71.26
55010;BME280;40903;51.638;7.528;2022-10-16T09:31:53;100986.94;;;18.93;68.54
55010;BME280;40903;51.638;7.528;2022-10-16T09:34:33;100984.09;;;18.81;67.00
55010;BME280;40903;51.638;7.528;2022-10-16T09:36:59;100992.03;;;18.83;66.72
55010;BME280;40903;51.638;7.528;2022-10-16T09:39:26;100996.56;;;18.87;68.94
55010;BME280;40903;51.638;7.528;2022-10-16T09:41:51;100996.84;;;18.94;70.39
55010;BME280;40903;51.638;7.528;2022-10-16T09:44:23;100993.31;;;18.85;70.45
55010;BME280;40903;51.638;7.528;2022-10-16T09:47:00;100989.63;;;19.02;71.59
55010;BME280;40903;51.638;7.528;2022-10-16T09:49:26;100995.16;;;19.14;68.35
55010;BME280;40903;51.638;7.528;2022-10-16T09:52:02;100995.25;;;19.26;69.54
55010;BME280;40903;51.638;7.528;2022-10-16T09:54:27;101003.06;;;19.24;64.13
55010;BME280;40903;51.638;7.528;2022-10-16T09:57:03;101003.44;;;19.14;67.81
55010;BME280;40903;51.638;7.528;2022-10-16T09:59:29;101001.69;;;19.18;68.26
55010;BME280;40903;51.638;7.528;2022-10-16T10:01:56;101007.91;;;19.06;67.07
55010;BME280;40903;51.638;7.528;2022-10-16T10:04:24;101008.22;;;18.93;68.35
55010;BME280;40903;51.638;7.528;2022-10-16T10:06:54;101005.19;;;18.86;69.15
55010;BME280;40903;51.638;7.528;2022-10-16T10:09:30;101010.97;;;18.93;68.47
55010;BME280;40903;51.638;7.528;2022-10-16T10:12:00;101005.28;;;19.10;68.58
55010;BME280;40903;51.638;7.528;2022-10-16T10:17:07;101008.97;;;19.34;69.42
55010;BME280;40903;51.638;7.528;2022-10-16T10:19:38;101012.84;;;19.54;69.05
55010;BME280;40903;51.638;7.528;2022-10-16T10:22:15;101021.16;;;19.66;64.90
55010;BME280;40903;51.638;7.528;2022-10-16T10:24:41;101020.53;;;19.48;64.96
55010;BME280;40903;51.638;7.528;2022-10-16T10:27:12;101021.22;;;19.45;65.03
55010;BME280;40903;51.638;7.528;2022-10-16T10:32:39;101021.75;;;19.71;66.52
55010;BME280;40903;51.638;7.528;2022-10-16T10:35:16;101021.41;;;19.85;65.54
55010;BME280;40903;51.638;7.528;2022-10-16T10:42:49;101027.69;;;20.17;63.65
55010;BME280;40903;51.638;7.528;2022-10-16T10:45:22;101029.66;;;20.29;63.25
55010;BME280;40903;51.638;7.528;2022-10-16T10:53:17;101028.84;;;20.52;58.26
55010;BME280;40903;51.638;7.528;2022-10-16T11:03:23;101033.25;;;20.93;60.89
55010;BME280;40903;51.638;7.528;2022-10-16T11:05:53;101029.81;;;20.84;58.62
55010;BME280;40903;51.638;7.528;2022-10-16T11:08:29;101026.09;;;20.80;58.69
55010;BME280;40903;51.638;7.528;2022-10-16T11:10:58;101029.16;;;20.63;59.23
55010;BME280;40903;51.638;7.528;2022-10-16T11:13:32;101029.72;;;20.68;59.12
55010;BME280;40903;51.638;7.528;2022-10-16T11:16:01;101032.00;;;20.78;58.23
55010;BME280;40903;51.638;7.528;2022-10-16T11:18:49;101034.75;;;20.90;55.64
55010;BME280;40903;51.638;7.528;2022-10-16T11:21:17;101042.81;;;20.95;55.62
55010;BME280;40903;51.638;7.528;2022-10-16T11:24:45;101044.47;;;20.96;59.18
55010;BME280;40903;51.638;7.528;2022-10-16T11:26:39;101031.75;;;20.83;56.95
55010;BME280;40903;51.638;7.528;2022-10-16T11:29:10;101036.31;;;20.64;57.70
55010;BME280;40903;51.638;7.528;2022-10-16T11:31:41;101039.22;;;20.55;57.48
55010;BME280;40903;51.638;7.528;2022-10-16T11:39:19;101037.53;;;20.90;60.47
55010;BME280;40903;51.638;7.528;2022-10-16T11:41:49;101040.03;;;21.07;58.82
55010;BME280;40903;51.638;7.528;2022-10-16T11:44:28;101041.41;;;21.13;57.66
55010;BME280;40903;51.638;7.528;2022-10-16T11:47:01;101049.28;;;21.11;55.43
55010;BME280;40903;51.638;7.528;2022-10-16T11:49:27;101045.13;;;21.05;55.62
55010;BME280;40903;51.638;7.528;2022-10-16T11:51:57;101047.13;;;20.81;56.51
55010;BME280;40903;51.638;7.528;2022-10-16T11:57:14;101041.28;;;21.10;55.20
55010;BME280;40903;51.638;7.528;2022-10-16T11:59:42;101040.94;;;21.11;56.49
55010;BME280;40903;51.638;7.528;2022-10-16T12:07:41;101052.63;;;21.32;54.52
55010;BME280;40903;51.638;7.528;2022-10-16T12:10:25;101054.56;;;21.16;56.14
55010;BME280;40903;51.638;7.528;2022-10-16T12:12:51;101051.38;;;21.30;56.64
55010;BME280;40903;51.638;7.528;2022-10-16T12:15:27;101054.66;;;21.47;55.61
55010;BME280;40903;51.638;7.528;2022-10-16T12:17:53;101047.50;;;21.62;56.59
55010;BME280;40903;51.638;7.528;2022-10-16T12:20:28;101053.31;;;21.57;54.84
55010;BME280;40903;51.638;7.528;2022-10-16T12:22:59;101064.13;;;21.46;53.63
55010;BME280;40903;51.638;7.528;2022-10-16T12:25:27;101067.09;;;21.53;54.99
55010;BME280;40903;51.638;7.528;2022-10-16T12:28:06;101057.00;;;21.61;55.74
55010;BME280;40903;51.638;7.528;2022-10-16T12:30:42;101053.06;;;21.62;57.32
55010;BME280;40903;51.638;7.528;2022-10-16T12:35:48;101053.22;;;21.81;55.42
55010;BME280;40903;51.638;7.528;2022-10-16T12:38:16;101060.94;;;21.60;54.08
55010;BME280;40903;51.638;7.528;2022-10-16T12:40:42;101063.94;;;21.39;54.19
55010;BME280;40903;51.638;7.528;2022-10-16T12:45:45;101062.75;;;21.40;55.15
55010;BME280;40903;51.638;7.528;2022-10-16T12:48:21;101063.28;;;21.30;54.73
55010;BME280;40903;51.638;7.528;2022-10-16T12:50:46;101075.31;;;21.22;55.95
55010;BME280;40903;51.638;7.528;2022-10-16T12:53:22;101074.84;;;21.32;55.51
55010;BME280;40903;51.638;7.528;2022-10-16T13:02:54;101075.13;;;21.70;51.63
55010;BME280;40903;51.638;7.528;2022-10-16T13:08:12;101071.47;;;21.11;53.51
55010;BME280;40903;51.638;7.528;2022-10-16T13:13:27;101078.06;;;20.83;55.50
55010;BME280;40903;51.638;7.528;2022-10-16T13:21:04;101072.09;;;20.69;56.09
55010;BME280;40903;51.638;7.528;2022-10-16T13:23:49;101077.97;;;20.79;57.24
55010;BME280;40903;51.638;7.528;2022-10-16T13:26:23;101076.47;;;20.94;55.92
55010;BME280;40903;51.638;7.528;2022-10-16T13:28:51;101079.56;;;21.04;55.55
55010;BME280;40903;51.638;7.528;2022-10-16T13:31:22;101077.69;;;21.08;54.58
55010;BME280;40903;51.638;7.528;2022-10-16T13:33:50;101076.03;;;21.19;55.41
55010;BME280;40903;51.638;7.528;2022-10-16T13:36:29;101082.16;;;21.25;53.90
55010;BME280;40903;51.638;7.528;2022-10-16T13:41:39;101077.38;;;21.25;53.41
55010;BME280;40903;51.638;7.528;2022-10-16T13:44:04;101074.72;;;21.29;55.83
55010;BME280;40903;51.638;7.528;2022-10-16T13:46:30;101095.31;;;21.28;52.38
55010;BME280;40903;51.638;7.528;2022-10-16T13:49:03;101092.09;;;21.26;53.52
55010;BME280;40903;51.638;7.528;2022-10-16T13:51:28;101092.19;;;21.29;53.38
55010;BME280;40903;51.638;7.528;2022-10-16T13:53:54;101099.97;;;21.24;53.43
55010;BME280;40903;51.638;7.528;2022-10-16T13:56:20;101101.22;;;21.26;53.17
55010;BME280;40903;51.638;7.528;2022-10-16T13:58:57;101101.56;;;21.25;53.07
55010;BME280;40903;51.638;7.528;2022-10-16T14:01:23;101110.69;;;21.25;53.54
55010;BME280;40903;51.638;7.528;2022-10-16T14:03:50;101113.97;;;21.15;53.55
55010;BME280;40903;51.638;7.528;2022-10-16T14:06:19;101107.09;;;20.97;53.19
55010;BME280;40903;51.638;7.528;2022-10-16T14:08:50;101106.97;;;20.82;53.23
55010;BME280;40903;51.638;7.528;2022-10-16T14:11:20;101093.22;;;20.61;56.45